Decoded Metar for PGUA (ANDERSEN in MARIANA ISLANDS) (IATA:UAM) | Meteo·Mobile Aviation Weather
aviador You're here:

PGUA Decoded Metar

ANDERSEN in MARIANA ISLANDS
Report Time2020-02-22 20:56:00
UTC Time2020-02-22 21:41:43
Flight Rules mvfr MVFR
Wind090° at 19 Gusting to 24 kt
W.Decomp.*RWY 06: 16.8 kt HW 8.9 kt RCW
Visibility9999 m
Phenomena:N/A
Clouds:Few 008 Hf
Broken 015 Hf
Expected CloudBase > 800 ft AGL from Temp-Dew spread
Ceiling1,500 ft
Temp24°C (ISA +10)
Dew Point22°C (89% RH)
AAT21.9°C
QNH1017 hPa
Density Alt2,014 ft
Elevation614 ft
Report Wrong Elevation
Raw Report
PGUA 222056Z 09019G24KT 10SM FEW008 BKN015 24/22 A3003 RMK AO2A PK
WND 09031/32 CIG 013V021 RWY24L SLP160 P0001 60001 T02360215
52010 TSNO $=

Extra information for PGUA:More info

Metar Taf Metar & Taf Last 4 Metars F.Rules Stats Wind Profile Meteogram Temp Stats Airport Information Weather charts Add Link Nearby VenuesMetar ALERT Operation Metar Decoded Social comments